Time;durP1;ratioP1;P1;durP2;ratioP2;P2;SDS_P1;SDS_P2;PMS_P1;PMS_P2;Temp;Humidity;BMP_temperature;BMP_pressure;BME280_temperature;BME280_humidity;BME280_pressure;Samples;Min_cycle;Max_cycle;Signal;HPM_P1;HPM_P2
2022/01/07 00:00:15;;;;;;;7.43;6.93;;;;;;;;;;4827236;29;32285;-67
2022/01/07 00:02:45;;;;;;;7.93;7.50;;;;;;;;;;4811264;29;32556;-68
2022/01/07 00:05:14;;;;;;;8.02;7.30;;;;;;;;;;4818965;29;32284;-69
2022/01/07 00:07:43;;;;;;;7.53;7.10;;;;;;;;;;4810810;29;32682;-71
2022/01/07 00:10:15;;;;;;;7.18;6.68;;;;;;;;;;4809810;29;35635;-71
2022/01/07 00:12:44;;;;;;;7.30;6.82;;;;;;;;;;4810671;29;32416;-70
2022/01/07 00:15:12;;;;;;;7.47;7.03;;;;;;;;;;4811165;29;32333;-69
2022/01/07 00:17:40;;;;;;;8.07;7.47;;;;;;;;;;4810243;29;32415;-71
2022/01/07 00:20:11;;;;;;;8.13;7.63;;;;;;;;;;4808704;29;34523;-72
2022/01/07 00:22:40;;;;;;;7.15;6.60;;;;;;;;;;4808941;29;32563;-69
2022/01/07 00:25:13;;;;;;;7.45;6.95;;;;;;;;;;4809210;29;32358;-69
2022/01/07 00:27:42;;;;;;;8.23;7.72;;;;;;;;;;4809059;29;32454;-68
2022/01/07 00:30:13;;;;;;;7.25;6.75;;;;;;;;;;4809269;29;32421;-71
2022/01/07 00:32:41;;;;;;;7.05;6.65;;;;;;;;;;4808665;29;35589;-68
2022/01/07 00:35:11;;;;;;;6.95;6.50;;;;;;;;;;4811271;29;32385;-68
2022/01/07 00:37:39;;;;;;;8.10;7.60;;;;;;;;;;4810551;29;32557;-70
2022/01/07 00:40:12;;;;;;;7.50;7.00;;;;;;;;;;4808407;29;32463;-72
2022/01/07 00:42:40;;;;;;;7.80;7.30;;;;;;;;;;4809344;29;34444;-69
2022/01/07 00:45:10;;;;;;;7.53;7.13;;;;;;;;;;4810540;29;32375;-72
2022/01/07 00:47:38;;;;;;;7.07;6.68;;;;;;;;;;4808932;29;32464;-69
2022/01/07 00:50:08;;;;;;;8.05;7.55;;;;;;;;;;4810867;29;32227;-70
2022/01/07 00:52:36;;;;;;;7.97;7.47;;;;;;;;;;4811628;29;32336;-73
2022/01/07 00:55:06;;;;;;;7.22;6.82;;;;;;;;;;4807602;29;35003;-68
2022/01/07 00:57:36;;;;;;;7.90;7.40;;;;;;;;;;4820909;29;32752;-69
2022/01/07 01:00:07;;;;;;;7.45;6.95;;;;;;;;;;4826398;29;32568;-69
2022/01/07 01:02:35;;;;;;;7.67;7.17;;;;;;;;;;4811486;29;32588;-69
2022/01/07 01:05:04;;;;;;;7.22;6.82;;;;;;;;;;4808507;29;34623;-69
2022/01/07 01:07:32;;;;;;;7.70;7.20;;;;;;;;;;4808646;29;32369;-71
2022/01/07 01:10:01;;;;;;;7.53;7.03;;;;;;;;;;4810347;29;32605;-69
2022/01/07 01:12:30;;;;;;;7.50;7.00;;;;;;;;;;4809664;29;32565;-69
2022/01/07 01:15:00;;;;;;;7.68;7.18;;;;;;;;;;4810926;29;32417;-68
2022/01/07 01:17:28;;;;;;;7.90;7.15;;;;;;;;;;4809961;29;34822;-68
2022/01/07 01:19:56;;;;;;;7.50;7.00;;;;;;;;;;4827398;29;32532;-68
2022/01/07 01:22:25;;;;;;;7.55;7.05;;;;;;;;;;4829052;29;32371;-68
2022/01/07 01:24:53;;;;;;;7.20;6.72;;;;;;;;;;4829138;29;32701;-68
2022/01/07 01:27:21;;;;;;;7.63;7.13;;;;;;;;;;4827282;29;34607;-69
2022/01/07 01:29:49;;;;;;;7.65;7.20;;;;;;;;;;4829154;29;32293;-68
2022/01/07 01:32:19;;;;;;;6.78;6.38;;;;;;;;;;4828881;29;32352;-68
2022/01/07 01:34:47;;;;;;;7.63;7.13;;;;;;;;;;4829025;29;32429;-68
2022/01/07 01:37:16;;;;;;;7.80;7.20;;;;;;;;;;4829013;29;32609;-73
2022/01/07 01:39:44;;;;;;;7.63;7.13;;;;;;;;;;4828795;29;34626;-72
2022/01/07 01:42:12;;;;;;;7.65;7.15;;;;;;;;;;4828360;29;32430;-72
2022/01/07 01:44:40;;;;;;;6.82;6.43;;;;;;;;;;4828691;29;32388;-70
2022/01/07 01:47:08;;;;;;;7.45;6.95;;;;;;;;;;4826895;29;32387;-73
2022/01/07 01:49:37;;;;;;;7.25;6.85;;;;;;;;;;4825997;29;33985;-72
2022/01/07 01:52:06;;;;;;;7.88;7.35;;;;;;;;;;4825751;29;32498;-70
2022/01/07 01:54:34;;;;;;;7.38;6.95;;;;;;;;;;4825696;29;32804;-71
2022/01/07 01:57:02;;;;;;;7.05;6.55;;;;;;;;;;4815751;29;32505;-70
2022/01/07 01:59:32;;;;;;;7.32;6.82;;;;;;;;;;4808266;29;32887;-71
2022/01/07 02:02:01;;;;;;;7.55;6.85;;;;;;;;;;4807256;29;35152;-70
2022/01/07 02:04:29;;;;;;;7.55;7.07;;;;;;;;;;4806942;29;32798;-71
2022/01/07 02:06:59;;;;;;;7.90;7.40;;;;;;;;;;4807249;29;32454;-69
2022/01/07 02:09:35;;;;;;;7.03;6.63;;;;;;;;;;4809871;29;32496;-72
2022/01/07 02:12:04;;;;;;;7.03;6.53;;;;;;;;;;4809258;29;35525;-70
2022/01/07 02:14:34;;;;;;;7.22;6.72;;;;;;;;;;4808389;29;32791;-70
2022/01/07 02:17:07;;;;;;;6.97;6.47;;;;;;;;;;4808530;29;32434;-70
2022/01/07 02:19:37;;;;;;;6.63;6.22;;;;;;;;;;4809095;29;32706;-69
2022/01/07 02:22:06;;;;;;;7.20;6.80;;;;;;;;;;4810347;29;32457;-72
2022/01/07 02:24:35;;;;;;;7.18;6.68;;;;;;;;;;4810905;29;34206;-70
2022/01/07 02:27:03;;;;;;;7.00;6.60;;;;;;;;;;4810116;29;32674;-72
2022/01/07 02:29:31;;;;;;;6.63;6.22;;;;;;;;;;4809803;29;32355;-71
2022/01/07 02:31:59;;;;;;;7.50;7.00;;;;;;;;;;4818001;29;32707;-70
2022/01/07 02:34:27;;;;;;;6.72;6.32;;;;;;;;;;4826578;29;34516;-68
2022/01/07 02:36:57;;;;;;;6.55;6.15;;;;;;;;;;4827435;29;32472;-70
2022/01/07 02:39:25;;;;;;;7.18;6.60;;;;;;;;;;4827851;29;32600;-69
2022/01/07 02:41:53;;;;;;;6.40;6.00;;;;;;;;;;4828718;29;32561;-72
2022/01/07 02:44:21;;;;;;;7.32;6.82;;;;;;;;;;4831199;29;32462;-71
2022/01/07 02:46:49;;;;;;;6.80;6.40;;;;;;;;;;4828996;29;35453;-73
2022/01/07 02:49:20;;;;;;;6.80;6.30;;;;;;;;;;4811721;29;32568;-70
2022/01/07 02:51:48;;;;;;;6.90;6.50;;;;;;;;;;4822210;29;32774;-72
2022/01/07 02:54:18;;;;;;;7.18;6.78;;;;;;;;;;4829743;29;32305;-70
2022/01/07 02:56:46;;;;;;;8.00;7.50;;;;;;;;;;4822132;29;33896;-71
2022/01/07 02:59:14;;;;;;;7.03;6.53;;;;;;;;;;4812301;29;32525;-70
2022/01/07 03:01:42;;;;;;;6.63;6.20;;;;;;;;;;4811081;29;32571;-69
2022/01/07 03:04:10;;;;;;;7.05;6.55;;;;;;;;;;4811493;29;32382;-70
2022/01/07 03:06:38;;;;;;;7.25;6.70;;;;;;;;;;4812279;29;32602;-68
2022/01/07 03:09:07;;;;;;;6.43;6.03;;;;;;;;;;4818247;29;35532;-69
2022/01/07 03:11:37;;;;;;;7.63;7.05;;;;;;;;;;4811808;29;32668;-69
2022/01/07 03:14:05;;;;;;;6.47;6.07;;;;;;;;;;4811999;29;32450;-70
2022/01/07 03:16:33;;;;;;;6.70;6.28;;;;;;;;;;4812068;29;32166;-70
2022/01/07 03:19:01;;;;;;;7.20;6.70;;;;;;;;;;4811555;29;34081;-72
2022/01/07 03:21:29;;;;;;;6.93;6.53;;;;;;;;;;4819724;29;32806;-70
2022/01/07 03:23:57;;;;;;;7.07;6.68;;;;;;;;;;4830370;29;32420;-69
2022/01/07 03:26:25;;;;;;;7.13;6.72;;;;;;;;;;4830690;29;32479;-69
2022/01/07 03:28:55;;;;;;;6.55;6.15;;;;;;;;;;4829817;29;32349;-71
2022/01/07 03:31:23;;;;;;;7.35;6.85;;;;;;;;;;4830382;29;34079;-68
2022/01/07 03:33:51;;;;;;;6.75;6.35;;;;;;;;;;4830368;29;32469;-71
2022/01/07 03:36:19;;;;;;;6.15;5.78;;;;;;;;;;4830241;29;32342;-69
2022/01/07 03:38:47;;;;;;;7.30;6.78;;;;;;;;;;4827988;29;32447;-69
2022/01/07 03:41:15;;;;;;;6.75;6.35;;;;;;;;;;4826579;29;35932;-71
2022/01/07 03:43:43;;;;;;;6.57;6.18;;;;;;;;;;4826671;29;32504;-71
2022/01/07 03:46:12;;;;;;;6.38;5.97;;;;;;;;;;4827574;29;32708;-70
2022/01/07 03:48:40;;;;;;;6.82;6.30;;;;;;;;;;4827347;29;32314;-72
2022/01/07 03:51:08;;;;;;;6.53;6.13;;;;;;;;;;4827371;29;32449;-70
2022/01/07 03:53:37;;;;;;;6.68;6.18;;;;;;;;;;4817327;29;34146;-70
2022/01/07 03:56:05;;;;;;;5.75;5.35;;;;;;;;;;4811733;29;32485;-69
2022/01/07 03:58:33;;;;;;;5.93;5.53;;;;;;;;;;4828869;29;32474;-72
2022/01/07 04:01:01;;;;;;;6.20;5.80;;;;;;;;;;4810733;29;32302;-70
2022/01/07 04:03:31;;;;;;;6.47;6.07;;;;;;;;;;4810628;29;35018;-70
2022/01/07 04:05:59;;;;;;;6.25;5.85;;;;;;;;;;4811445;29;32329;-71
2022/01/07 04:08:27;;;;;;;6.30;5.90;;;;;;;;;;4810621;29;32620;-70
2022/01/07 04:10:55;;;;;;;5.97;5.57;;;;;;;;;;4811782;29;32337;-69
2022/01/07 04:13:22;;;;;;;5.85;5.53;;;;;;;;;;4824286;29;32655;-70
2022/01/07 04:15:51;;;;;;;5.80;5.50;;;;;;;;;;4829619;29;32417;-70
2022/01/07 04:18:19;;;;;;;5.40;5.00;;;;;;;;;;4827667;29;32476;-69
2022/01/07 04:20:48;;;;;;;5.70;5.30;;;;;;;;;;4828404;29;32639;-72
2022/01/07 04:23:16;;;;;;;5.38;5.07;;;;;;;;;;4829796;29;32365;-70
2022/01/07 04:25:44;;;;;;;6.03;5.70;;;;;;;;;;4829837;29;33950;-70
2022/01/07 04:28:12;;;;;;;5.20;4.80;;;;;;;;;;4827712;29;32590;-74
2022/01/07 04:30:43;;;;;;;6.15;5.75;;;;;;;;;;4829318;29;32375;-70
2022/01/07 04:33:14;;;;;;;5.75;5.30;;;;;;;;;;4828519;29;32426;-73
2022/01/07 04:35:44;;;;;;;4.93;4.63;;;;;;;;;;4827763;29;32823;-69
2022/01/07 04:38:13;;;;;;;5.70;5.32;;;;;;;;;;4828097;29;32381;-70
2022/01/07 04:40:41;;;;;;;5.10;4.80;;;;;;;;;;4823938;29;32559;-75
2022/01/07 04:43:09;;;;;;;5.82;5.43;;;;;;;;;;4811031;29;32228;-70
2022/01/07 04:45:37;;;;;;;4.82;4.53;;;;;;;;;;4822555;29;32530;-71
2022/01/07 04:48:06;;;;;;;5.05;4.70;;;;;;;;;;4829218;29;34001;-70
2022/01/07 04:50:34;;;;;;;4.95;4.65;;;;;;;;;;4828139;29;32476;-70
2022/01/07 04:53:02;;;;;;;4.85;4.55;;;;;;;;;;4829152;29;32329;-72
2022/01/07 04:55:36;;;;;;;4.72;4.43;;;;;;;;;;4828921;29;32864;-69
2022/01/07 04:58:05;;;;;;;4.63;4.32;;;;;;;;;;4829318;29;32353;-70
2022/01/07 05:00:33;;;;;;;4.80;4.50;;;;;;;;;;4829138;29;32305;-70
2022/01/07 05:03:01;;;;;;;4.88;4.57;;;;;;;;;;4828579;29;32407;-74
2022/01/07 05:05:30;;;;;;;4.38;4.10;;;;;;;;;;4828695;29;32463;-70
2022/01/07 05:07:58;;;;;;;4.53;4.28;;;;;;;;;;4829274;29;32362;-73
2022/01/07 05:10:26;;;;;;;4.95;4.65;;;;;;;;;;4828629;29;34059;-68
2022/01/07 05:12:56;;;;;;;4.85;4.55;;;;;;;;;;4826199;29;32507;-72
2022/01/07 05:15:24;;;;;;;4.80;4.53;;;;;;;;;;4829068;29;32542;-72
2022/01/07 05:17:52;;;;;;;4.65;4.35;;;;;;;;;;4828352;29;32559;-73
2022/01/07 05:20:20;;;;;;;4.80;4.50;;;;;;;;;;4826999;29;32435;-73
2022/01/07 05:22:49;;;;;;;4.88;4.57;;;;;;;;;;4810111;29;32522;-70
2022/01/07 05:25:17;;;;;;;4.80;4.50;;;;;;;;;;4810006;29;32386;-71
2022/01/07 05:27:45;;;;;;;5.22;4.82;;;;;;;;;;4810123;29;32424;-71
2022/01/07 05:30:15;;;;;;;5.22;4.93;;;;;;;;;;4810525;29;32295;-71
2022/01/07 05:32:43;;;;;;;5.20;4.85;;;;;;;;;;4809862;29;34250;-74
2022/01/07 05:35:12;;;;;;;4.63;4.32;;;;;;;;;;4810197;29;32524;-72
2022/01/07 05:37:40;;;;;;;4.80;4.50;;;;;;;;;;4810317;29;32411;-71
2022/01/07 05:40:10;;;;;;;5.05;4.70;;;;;;;;;;4810383;29;33095;-70
2022/01/07 05:42:38;;;;;;;4.90;4.60;;;;;;;;;;4811479;29;32444;-71
2022/01/07 05:45:07;;;;;;;4.70;4.40;;;;;;;;;;4812704;29;32472;-72
2022/01/07 05:47:36;;;;;;;4.20;3.97;;;;;;;;;;4813427;29;32313;-71
2022/01/07 05:50:06;;;;;;;4.60;4.30;;;;;;;;;;4812836;29;32396;-71
2022/01/07 05:52:34;;;;;;;4.63;4.32;;;;;;;;;;4812362;29;32353;-74
2022/01/07 05:55:02;;;;;;;4.63;4.35;;;;;;;;;;4812329;29;34762;-72
2022/01/07 05:57:30;;;;;;;4.60;4.40;;;;;;;;;;4812824;29;32488;-72
2022/01/07 05:59:58;;;;;;;5.18;4.88;;;;;;;;;;4813014;29;32298;-72
2022/01/07 06:02:26;;;;;;;4.68;4.38;;;;;;;;;;4813080;29;32444;-70
2022/01/07 06:04:56;;;;;;;4.90;4.60;;;;;;;;;;4812258;29;32618;-75
2022/01/07 06:07:24;;;;;;;4.32;4.10;;;;;;;;;;4812559;29;32385;-71
2022/01/07 06:09:52;;;;;;;5.25;4.85;;;;;;;;;;4814304;29;32340;-72
2022/01/07 06:12:20;;;;;;;4.63;4.32;;;;;;;;;;4830464;29;32422;-74
2022/01/07 06:14:48;;;;;;;4.90;4.60;;;;;;;;;;4830699;29;32360;-73
2022/01/07 06:17:16;;;;;;;5.00;4.70;;;;;;;;;;4831098;29;34585;-73
2022/01/07 06:19:44;;;;;;;4.88;4.47;;;;;;;;;;4814892;29;35289;-71
2022/01/07 06:22:19;;;;;;;4.28;4.07;;;;;;;;;;4811778;29;32388;-73
2022/01/07 06:24:47;;;;;;;4.93;4.63;;;;;;;;;;4811690;29;32286;-73
2022/01/07 06:27:15;;;;;;;4.88;4.57;;;;;;;;;;4809872;29;34093;-72
2022/01/07 06:29:44;;;;;;;5.28;4.97;;;;;;;;;;4812169;29;32437;-71
2022/01/07 06:32:12;;;;;;;5.45;5.05;;;;;;;;;;4811701;29;32462;-71
2022/01/07 06:34:39;;;;;;;5.18;4.88;;;;;;;;;;4811404;29;32541;-74
2022/01/07 06:37:07;;;;;;;4.57;4.28;;;;;;;;;;4812505;29;32708;-70
2022/01/07 06:39:37;;;;;;;4.80;4.50;;;;;;;;;;4811413;29;33946;-70
2022/01/07 06:42:06;;;;;;;5.00;4.70;;;;;;;;;;4809746;29;32377;-71
2022/01/07 06:44:34;;;;;;;5.43;5.03;;;;;;;;;;4811658;29;32347;-72
2022/01/07 06:47:02;;;;;;;4.60;4.30;;;;;;;;;;4810822;29;32599;-72
2022/01/07 06:49:30;;;;;;;5.35;4.97;;;;;;;;;;4811443;29;34001;-72
2022/01/07 06:51:58;;;;;;;4.57;4.18;;;;;;;;;;4811183;29;32519;-71
2022/01/07 06:54:27;;;;;;;4.97;4.68;;;;;;;;;;4811156;29;32438;-71
2022/01/07 06:56:56;;;;;;;4.95;4.65;;;;;;;;;;4818265;29;32100;-70
2022/01/07 06:59:24;;;;;;;4.55;4.25;;;;;;;;;;4828808;29;32344;-71
2022/01/07 07:01:53;;;;;;;4.78;4.47;;;;;;;;;;4829052;29;35888;-69
2022/01/07 07:04:21;;;;;;;4.32;4.13;;;;;;;;;;4827622;29;32606;-71
2022/01/07 07:06:49;;;;;;;5.15;4.75;;;;;;;;;;4825689;29;32420;-73
2022/01/07 07:09:21;;;;;;;4.43;4.13;;;;;;;;;;4826590;29;32384;-71
2022/01/07 07:11:50;;;;;;;4.85;4.55;;;;;;;;;;4825883;29;34746;-70
2022/01/07 07:14:21;;;;;;;4.65;4.35;;;;;;;;;;4826810;29;32727;-70
2022/01/07 07:16:49;;;;;;;4.68;4.38;;;;;;;;;;4827713;29;32638;-71
2022/01/07 07:19:17;;;;;;;4.40;4.10;;;;;;;;;;4819600;29;32549;-70
2022/01/07 07:21:45;;;;;;;4.47;4.18;;;;;;;;;;4826496;29;32579;-73
2022/01/07 07:24:13;;;;;;;4.60;4.30;;;;;;;;;;4826498;29;34023;-70
2022/01/07 07:26:43;;;;;;;4.40;4.10;;;;;;;;;;4827528;29;32630;-70
2022/01/07 07:29:11;;;;;;;5.00;4.70;;;;;;;;;;4819963;29;32561;-70
2022/01/07 07:31:44;;;;;;;4.65;4.35;;;;;;;;;;4824699;29;32464;-69
2022/01/07 07:34:43;;;;;;;4.65;4.35;;;;;;;;;;4821920;29;35463;-68
2022/01/07 07:37:13;;;;;;;4.28;3.97;;;;;;;;;;4818105;29;32652;-71
2022/01/07 07:39:41;;;;;;;5.00;4.60;;;;;;;;;;4818584;29;32403;-71
2022/01/07 07:42:09;;;;;;;5.05;4.65;;;;;;;;;;4815568;29;32443;-71
2022/01/07 07:44:37;;;;;;;4.13;3.92;;;;;;;;;;4826835;29;32520;-71
2022/01/07 07:47:07;;;;;;;4.75;4.45;;;;;;;;;;4828213;29;35433;-69
2022/01/07 07:49:35;;;;;;;4.75;4.45;;;;;;;;;;4826415;29;32646;-72
2022/01/07 07:52:04;;;;;;;4.78;4.47;;;;;;;;;;4826049;29;33009;-71
2022/01/07 07:54:32;;;;;;;4.55;4.25;;;;;;;;;;4828707;29;32607;-72
2022/01/07 07:57:00;;;;;;;4.63;4.32;;;;;;;;;;4812047;29;34088;-71
2022/01/07 07:59:29;;;;;;;5.20;4.90;;;;;;;;;;4814612;29;32556;-70
2022/01/07 08:01:57;;;;;;;5.05;4.55;;;;;;;;;;4815907;29;32821;-69
2022/01/07 08:04:27;;;;;;;4.90;4.60;;;;;;;;;;4822755;29;32954;-70
2022/01/07 08:06:55;;;;;;;4.78;4.38;;;;;;;;;;4821152;29;32291;-69
2022/01/07 08:09:24;;;;;;;4.63;4.32;;;;;;;;;;4816638;29;33962;-72
2022/01/07 08:11:57;;;;;;;4.18;3.88;;;;;;;;;;4819618;29;32538;-72
2022/01/07 08:17:10;;;;;;;4.85;4.55;;;;;;;;;;4820049;29;32492;-73
2022/01/07 08:19:40;;;;;;;4.38;4.18;;;;;;;;;;4810758;29;34612;-71
2022/01/07 08:22:08;;;;;;;5.00;4.70;;;;;;;;;;4815317;29;32577;-70
2022/01/07 08:24:37;;;;;;;5.18;4.90;;;;;;;;;;4817595;29;32913;-71
2022/01/07 08:27:06;;;;;;;5.05;4.75;;;;;;;;;;4812803;29;34162;-70
2022/01/07 08:29:37;;;;;;;5.05;4.75;;;;;;;;;;4805905;29;32493;-71
2022/01/07 08:34:56;;;;;;;5.10;4.80;;;;;;;;;;4820755;29;32435;-68
2022/01/07 08:37:26;;;;;;;5.15;4.75;;;;;;;;;;4820073;29;32513;-71
2022/01/07 08:39:55;;;;;;;5.22;4.93;;;;;;;;;;4819731;29;32545;-73
2022/01/07 08:42:25;;;;;;;4.90;4.60;;;;;;;;;;4814167;29;33943;-72
2022/01/07 08:44:55;;;;;;;4.82;4.53;;;;;;;;;;4813305;29;32414;-75
2022/01/07 08:47:25;;;;;;;4.88;4.47;;;;;;;;;;4812773;29;32483;-70
2022/01/07 08:49:55;;;;;;;5.30;4.97;;;;;;;;;;4813378;29;33592;-71
2022/01/07 08:52:23;;;;;;;4.72;4.43;;;;;;;;;;4815913;29;32570;-72
2022/01/07 08:54:52;;;;;;;4.70;4.40;;;;;;;;;;4811855;29;34632;-71
2022/01/07 08:57:21;;;;;;;4.65;4.35;;;;;;;;;;4817327;29;32767;-71
2022/01/07 08:59:51;;;;;;;4.95;4.65;;;;;;;;;;4820341;29;32388;-74
2022/01/07 09:02:20;;;;;;;6.13;4.50;;;;;;;;;;4814996;29;32542;-74
2022/01/07 09:04:48;;;;;;;5.03;4.68;;;;;;;;;;4813399;29;35429;-76
2022/01/07 09:07:17;;;;;;;4.97;4.68;;;;;;;;;;4813835;29;32502;-72
2022/01/07 09:09:45;;;;;;;5.13;4.82;;;;;;;;;;4815182;29;32869;-73
2022/01/07 09:12:13;;;;;;;5.05;4.75;;;;;;;;;;4814400;29;32467;-72
2022/01/07 09:14:41;;;;;;;4.82;4.53;;;;;;;;;;4816064;29;32553;-75
2022/01/07 09:17:10;;;;;;;4.93;4.63;;;;;;;;;;4819008;29;34146;-72
2022/01/07 09:19:38;;;;;;;4.78;4.47;;;;;;;;;;4818436;29;32498;-72
2022/01/07 09:22:06;;;;;;;4.65;4.35;;;;;;;;;;4821574;29;32617;-72
2022/01/07 09:24:36;;;;;;;6.13;4.35;;;;;;;;;;4819753;29;32442;-72
2022/01/07 09:27:04;;;;;;;4.60;4.32;;;;;;;;;;4815104;29;33964;-74
2022/01/07 09:29:33;;;;;;;4.60;4.30;;;;;;;;;;4812345;29;32420;-72
2022/01/07 09:32:01;;;;;;;4.97;4.68;;;;;;;;;;4817070;29;32489;-72
2022/01/07 09:34:29;;;;;;;4.03;3.80;;;;;;;;;;4817172;29;32447;-71
2022/01/07 09:36:57;;;;;;;4.70;4.40;;;;;;;;;;4817993;29;32494;-72
2022/01/07 09:39:26;;;;;;;4.55;4.30;;;;;;;;;;4814298;29;33949;-72
2022/01/07 09:41:56;;;;;;;4.97;4.68;;;;;;;;;;4814441;29;32533;-71
2022/01/07 09:44:24;;;;;;;4.93;4.65;;;;;;;;;;4816973;29;32889;-70
2022/01/07 09:46:52;;;;;;;5.63;5.30;;;;;;;;;;4816540;29;32471;-70
2022/01/07 09:49:20;;;;;;;5.53;5.22;;;;;;;;;;4813473;29;34032;-71
2022/01/07 09:51:48;;;;;;;5.57;5.20;;;;;;;;;;4822182;29;32942;-75
2022/01/07 09:54:18;;;;;;;7.93;4.80;;;;;;;;;;4815018;29;32663;-73
2022/01/07 09:56:46;;;;;;;5.15;4.85;;;;;;;;;;4817191;29;32569;-73
2022/01/07 09:59:15;;;;;;;5.38;5.07;;;;;;;;;;4814679;29;32941;-73
2022/01/07 10:01:58;;;;;;;5.00;4.70;;;;;;;;;;4815225;29;34919;-73
2022/01/07 10:04:31;;;;;;;5.00;4.70;;;;;;;;;;4819296;29;32460;-74
2022/01/07 10:07:16;;;;;;;5.15;4.80;;;;;;;;;;4814759;29;32454;-73
2022/01/07 10:09:59;;;;;;;4.65;4.35;;;;;;;;;;4815815;29;32579;-72
2022/01/07 10:12:30;;;;;;;4.63;4.32;;;;;;;;;;4813466;29;34535;-70
2022/01/07 10:15:14;;;;;;;4.93;4.63;;;;;;;;;;4813982;29;32971;-74
2022/01/07 10:17:43;;;;;;;5.13;4.82;;;;;;;;;;4814605;29;32610;-72
2022/01/07 10:20:16;;;;;;;4.90;4.60;;;;;;;;;;4815551;29;32336;-75
2022/01/07 10:22:53;;;;;;;4.70;4.45;;;;;;;;;;4818736;29;32401;-71
2022/01/07 10:25:24;;;;;;;5.15;4.85;;;;;;;;;;4813415;29;34730;-69
2022/01/07 10:27:53;;;;;;;4.93;4.68;;;;;;;;;;4809823;29;33260;-70
2022/01/07 10:30:26;;;;;;;5.18;4.78;;;;;;;;;;4816221;29;32608;-72
2022/01/07 10:32:55;;;;;;;4.72;4.45;;;;;;;;;;4824231;29;32413;-76
2022/01/07 10:35:25;;;;;;;5.40;5.10;;;;;;;;;;4820644;29;35686;-75
2022/01/07 10:37:58;;;;;;;4.50;4.30;;;;;;;;;;4820526;29;32455;-76
2022/01/07 10:40:33;;;;;;;4.90;4.65;;;;;;;;;;4818673;29;32484;-75
2022/01/07 10:43:15;;;;;;;5.28;4.97;;;;;;;;;;4820379;29;32482;-77
2022/01/07 10:45:47;;;;;;;5.28;4.97;;;;;;;;;;4820430;29;32649;-74
2022/01/07 10:48:16;;;;;;;5.22;4.93;;;;;;;;;;4819810;29;33974;-74
2022/01/07 10:50:46;;;;;;;5.45;5.10;;;;;;;;;;4814908;29;32967;-74
2022/01/07 10:53:27;;;;;;;5.20;4.90;;;;;;;;;;4814809;29;32961;-74
2022/01/07 10:56:10;;;;;;;5.32;5.03;;;;;;;;;;4815130;29;33142;-73
2022/01/07 10:58:53;;;;;;;5.25;4.95;;;;;;;;;;4813885;29;34634;-76
2022/01/07 11:01:40;;;;;;;5.53;5.13;;;;;;;;;;4812713;29;32707;-73
2022/01/07 11:04:11;;;;;;;5.28;4.97;;;;;;;;;;4811576;29;32927;-77
2022/01/07 11:06:40;;;;;;;5.57;5.27;;;;;;;;;;4812186;29;33877;-72
2022/01/07 11:09:12;;;;;;;4.95;4.65;;;;;;;;;;4816032;29;32467;-73
2022/01/07 11:11:52;;;;;;;5.68;5.32;;;;;;;;;;4815286;29;35169;-74
2022/01/07 11:14:25;;;;;;;5.18;4.85;;;;;;;;;;4814786;29;32455;-73
2022/01/07 11:16:57;;;;;;;4.60;4.30;;;;;;;;;;4817890;29;32384;-74
2022/01/07 11:19:31;;;;;;;4.72;4.43;;;;;;;;;;4813045;29;32689;-74
2022/01/07 11:22:00;;;;;;;4.43;4.03;;;;;;;;;;4815807;29;34790;-72
2022/01/07 11:24:43;;;;;;;3.80;3.50;;;;;;;;;;4815445;29;32872;-72
2022/01/07 11:27:14;;;;;;;3.83;3.53;;;;;;;;;;4813838;29;32377;-75
2022/01/07 11:29:53;;;;;;;3.77;3.50;;;;;;;;;;4815120;29;32533;-73
2022/01/07 11:32:34;;;;;;;3.28;3.08;;;;;;;;;;4814586;29;32389;-73
2022/01/07 11:35:44;;;;;;;5.70;3.75;;;;;;;;;;4817581;29;34650;-72
2022/01/07 11:38:35;;;;;;;5.03;3.53;;;;;;;;;;4767153;29;32627;-73
2022/01/07 11:41:08;;;;;;;3.88;3.60;;;;;;;;;;4814302;29;32994;-77
2022/01/07 11:43:42;;;;;;;3.47;3.28;;;;;;;;;;4817332;29;32507;-74
2022/01/07 11:46:26;;;;;;;4.00;3.70;;;;;;;;;;4814794;29;36237;-77
2022/01/07 11:48:59;;;;;;;3.45;3.25;;;;;;;;;;4818905;29;32455;-76
2022/01/07 11:51:41;;;;;;;3.45;3.22;;;;;;;;;;4816600;29;32479;-73
2022/01/07 11:54:14;;;;;;;3.20;3.00;;;;;;;;;;4814750;29;32861;-73
2022/01/07 11:56:45;;;;;;;2.92;2.75;;;;;;;;;;4816988;29;32475;-76
2022/01/07 11:59:26;;;;;;;3.60;3.30;;;;;;;;;;4818273;29;35765;-73
2022/01/07 12:02:07;;;;;;;3.53;3.33;;;;;;;;;;4817461;29;32625;-72
2022/01/07 12:04:37;;;;;;;3.05;2.85;;;;;;;;;;4815622;29;32644;-72
2022/01/07 12:07:08;;;;;;;2.75;2.55;;;;;;;;;;4812830;29;32926;-73
2022/01/07 12:09:41;;;;;;;3.08;2.63;;;;;;;;;;4817766;29;34850;-74
2022/01/07 12:12:12;;;;;;;2.42;2.33;;;;;;;;;;4817862;29;32304;-74
2022/01/07 12:14:48;;;;;;;3.05;2.55;;;;;;;;;;4817898;29;34082;-73
2022/01/07 12:17:18;;;;;;;2.60;2.50;;;;;;;;;;4816341;29;32544;-71
2022/01/07 12:20:48;;;;;;;3.10;2.90;;;;;;;;;;4811453;29;32793;-72
2022/01/07 12:23:23;;;;;;;2.47;2.30;;;;;;;;;;4813316;29;35524;-76
2022/01/07 12:25:53;;;;;;;3.40;3.13;;;;;;;;;;4818519;29;32556;-73
2022/01/07 12:28:22;;;;;;;3.00;2.80;;;;;;;;;;4819802;29;32599;-74
2022/01/07 12:30:51;;;;;;;3.00;2.80;;;;;;;;;;4816930;29;32688;-76
2022/01/07 12:33:19;;;;;;;3.30;3.10;;;;;;;;;;4821146;29;34777;-76
2022/01/07 12:35:49;;;;;;;2.90;2.70;;;;;;;;;;4819583;29;32971;-75
2022/01/07 12:38:22;;;;;;;3.05;2.85;;;;;;;;;;4817864;29;32616;-72
2022/01/07 12:40:56;;;;;;;3.30;3.10;;;;;;;;;;4820439;29;31855;-72
2022/01/07 12:43:31;;;;;;;2.85;2.65;;;;;;;;;;4820045;29;32677;-74
2022/01/07 12:46:00;;;;;;;3.85;3.13;;;;;;;;;;4818441;29;35225;-70
2022/01/07 12:48:34;;;;;;;3.03;2.85;;;;;;;;;;4819212;29;32862;-73
2022/01/07 12:51:04;;;;;;;3.20;3.00;;;;;;;;;;4820065;29;32463;-72
2022/01/07 12:53:34;;;;;;;4.43;3.25;;;;;;;;;;4821261;29;32384;-74
2022/01/07 12:56:25;;;;;;;4.05;3.75;;;;;;;;;;4822443;29;34244;-71
2022/01/07 12:58:53;;;;;;;3.80;3.50;;;;;;;;;;4815039;29;32659;-75
2022/01/07 13:01:29;;;;;;;4.07;3.78;;;;;;;;;;4818720;29;32879;-72
2022/01/07 13:04:08;;;;;;;3.92;3.63;;;;;;;;;;4814596;29;32968;-71
2022/01/07 13:06:44;;;;;;;4.03;3.72;;;;;;;;;;4815907;29;32620;-73
2022/01/07 13:09:14;;;;;;;3.47;3.28;;;;;;;;;;4815879;29;33999;-70
2022/01/07 13:11:49;;;;;;;3.00;2.80;;;;;;;;;;4815006;29;32538;-74
2022/01/07 13:14:19;;;;;;;3.40;3.15;;;;;;;;;;4808988;29;32638;-71
2022/01/07 13:16:50;;;;;;;3.60;3.30;;;;;;;;;;4813270;29;32498;-73
2022/01/07 13:19:19;;;;;;;3.35;3.15;;;;;;;;;;4813116;29;35102;-73
2022/01/07 13:21:50;;;;;;;3.40;3.20;;;;;;;;;;4810449;29;32834;-71
2022/01/07 13:24:22;;;;;;;3.47;3.28;;;;;;;;;;4810732;29;32446;-71
2022/01/07 13:26:54;;;;;;;3.45;3.15;;;;;;;;;;4810337;29;32704;-73
2022/01/07 13:29:24;;;;;;;3.42;3.13;;;;;;;;;;4810271;29;32456;-69
2022/01/07 13:32:00;;;;;;;3.30;3.00;;;;;;;;;;4808109;29;34170;-71
2022/01/07 13:34:30;;;;;;;3.22;3.03;;;;;;;;;;4812037;29;32622;-69
2022/01/07 13:37:05;;;;;;;4.20;3.30;;;;;;;;;;4806686;29;32331;-71
2022/01/07 13:39:40;;;;;;;3.65;3.08;;;;;;;;;;4809457;29;32427;-70
2022/01/07 13:42:09;;;;;;;2.90;2.70;;;;;;;;;;4814482;29;34334;-71
2022/01/07 13:44:52;;;;;;;3.40;3.13;;;;;;;;;;4809517;29;33027;-73
2022/01/07 13:47:22;;;;;;;3.50;3.20;;;;;;;;;;4818994;29;32354;-75
2022/01/07 13:49:50;;;;;;;3.50;3.20;;;;;;;;;;4815168;29;32742;-72
2022/01/07 13:52:29;;;;;;;4.82;3.83;;;;;;;;;;4815862;29;32675;-70
2022/01/07 13:54:57;;;;;;;3.38;3.08;;;;;;;;;;4815672;29;35520;-73
2022/01/07 13:57:31;;;;;;;3.35;3.15;;;;;;;;;;4812346;29;33148;-72
2022/01/07 14:00:00;;;;;;;3.72;3.08;;;;;;;;;;4812482;29;32545;-73
2022/01/07 14:02:31;;;;;;;3.33;3.03;;;;;;;;;;4814401;29;32542;-75
2022/01/07 14:05:00;;;;;;;2.95;2.75;;;;;;;;;;4800317;29;36170;-73
2022/01/07 14:07:32;;;;;;;2.95;2.75;;;;;;;;;;4816825;29;32523;-72
2022/01/07 14:10:14;;;;;;;;;;;;;;;;;;4813635;29;32489;-72
2022/01/07 14:12:54;;;;;;;2.70;2.53;;;;;;;;;;4815607;29;32467;-71
2022/01/07 14:15:25;;;;;;;3.13;2.92;;;;;;;;;;4814079;29;32979;-71
2022/01/07 14:18:07;;;;;;;2.88;2.67;;;;;;;;;;4810291;29;35051;-72
2022/01/07 14:20:47;;;;;;;;;;;;;;;;;;4816713;29;32487;-73
2022/01/07 14:23:19;;;;;;;2.67;2.47;;;;;;;;;;4814173;29;32469;-72
2022/01/07 14:25:46;;;;;;;;;;;;;;;;;;4813275;29;32667;-71
2022/01/07 14:28:16;;;;;;;3.60;3.28;;;;;;;;;;4823416;29;35752;-72
2022/01/07 14:30:45;;;;;;;3.03;2.83;;;;;;;;;;4815371;29;32715;-75
2022/01/07 14:33:13;;;;;;;2.92;2.72;;;;;;;;;;4813021;29;32483;-75
2022/01/07 14:35:41;;;;;;;2.55;2.35;;;;;;;;;;4813657;29;32572;-72
2022/01/07 14:38:09;;;;;;;2.88;2.60;;;;;;;;;;4817334;29;32506;-70
2022/01/07 14:40:40;;;;;;;2.90;2.70;;;;;;;;;;4816111;29;34243;-73
2022/01/07 14:43:08;;;;;;;3.63;3.20;;;;;;;;;;4802931;29;32853;-71
2022/01/07 14:45:36;;;;;;;2.70;2.50;;;;;;;;;;4797996;29;33359;-75
2022/01/07 14:48:06;;;;;;;2.70;2.50;;;;;;;;;;4818067;29;32376;-73
2022/01/07 14:50:34;;;;;;;2.88;2.67;;;;;;;;;;4818351;29;34008;-74
2022/01/07 14:53:03;;;;;;;3.22;2.95;;;;;;;;;;4812782;29;32809;-73
2022/01/07 14:55:34;;;;;;;2.80;2.60;;;;;;;;;;4809930;29;32545;-74
2022/01/07 14:58:07;;;;;;;2.87;2.73;;;;;;;;;;4815394;29;32518;-73
2022/01/07 15:00:36;;;;;;;4.32;2.88;;;;;;;;;;4812606;29;32349;-71
2022/01/07 15:03:04;;;;;;;3.20;2.90;;;;;;;;;;4814865;29;32584;-70
2022/01/07 15:05:33;;;;;;;9.45;8.60;;;;;;;;;;4815280;29;32445;-75
2022/01/07 15:08:01;;;;;;;14.93;13.38;;;;;;;;;;4812100;29;33004;-72